Time;durP1;ratioP1;P1;durP2;ratioP2;P2;SDS_P1;SDS_P2;PMS_P1;PMS_P2;Temp;Humidity;BMP_temperature;BMP_pressure;BME280_temperature;BME280_humidity;BME280_pressure;Samples;Min_cycle;Max_cycle;Signal;HPM_P1;HPM_P2
2022/04/20 00:00:15;;;;;;;;;;;8.40;60.20;;;;;;5151019;27;19917;-72
2022/04/20 00:02:41;;;;;;;;;;;8.30;60.30;;;;;;5151135;27;19971;-72
2022/04/20 00:05:07;;;;;;;;;;;8.30;60.40;;;;;;5150900;27;19946;-72
2022/04/20 00:07:33;;;;;;;;;;;8.20;60.40;;;;;;5132134;27;19907;-72
2022/04/20 00:09:59;;;;;;;;;;;8.20;60.40;;;;;;5150834;27;19911;-72
2022/04/20 00:12:25;;;;;;;;;;;8.20;60.40;;;;;;5132216;27;19907;-72
2022/04/20 00:14:51;;;;;;;;;;;8.20;60.40;;;;;;5150626;27;20345;-72
2022/04/20 00:17:17;;;;;;;;;;;8.20;60.50;;;;;;5150819;27;19911;-72
2022/04/20 00:19:43;;;;;;;;;;;8.20;60.40;;;;;;5150660;27;20402;-72
2022/04/20 00:22:08;;;;;;;;;;;8.20;60.30;;;;;;5150418;27;20009;-72
2022/04/20 00:24:34;;;;;;;;;;;8.20;60.30;;;;;;5150532;27;19959;-72
2022/04/20 00:26:59;;;;;;;;;;;8.10;60.30;;;;;;5150498;27;19911;-72
2022/04/20 00:29:25;;;;;;;;;;;8.10;60.40;;;;;;5150395;27;20320;-72
2022/04/20 00:31:51;;;;;;;;;;;8.00;60.40;;;;;;5150458;27;19907;-72
2022/04/20 00:34:16;;;;;;;;;;;8.00;60.40;;;;;;5150388;27;20341;-73
2022/04/20 00:36:42;;;;;;;;;;;7.90;60.40;;;;;;5150153;27;19926;-72
2022/04/20 00:39:07;;;;;;;;;;;7.90;60.50;;;;;;5131933;27;19918;-72
2022/04/20 00:41:33;;;;;;;;;;;7.90;60.50;;;;;;5150139;27;19924;-72
2022/04/20 00:44:00;;;;;;;;;;;7.90;60.50;;;;;;5150275;27;19957;-73
2022/04/20 00:46:26;;;;;;;;;;;7.90;60.40;;;;;;5150177;27;19907;-72
2022/04/20 00:48:52;;;;;;;;;;;7.80;60.30;;;;;;5131615;27;19911;-72
2022/04/20 00:51:17;;;;;;;;;;;7.70;60.30;;;;;;5150037;27;20374;-72
2022/04/20 00:53:43;;;;;;;;;;;7.70;60.40;;;;;;5149612;27;19993;-72
2022/04/20 00:56:08;;;;;;;;;;;7.60;60.40;;;;;;5150034;27;19972;-72
2022/04/20 00:58:35;;;;;;;;;;;7.60;60.40;;;;;;5149866;27;19911;-72
2022/04/20 01:01:01;;;;;;;;;;;7.50;60.50;;;;;;5149886;27;19963;-72
2022/04/20 01:03:27;;;;;;;;;;;7.50;60.50;;;;;;5150010;27;19956;-72
2022/04/20 01:05:52;;;;;;;;;;;7.50;60.50;;;;;;5131406;27;19939;-72
2022/04/20 01:08:18;;;;;;;;;;;7.40;60.60;;;;;;5149828;27;19911;-72
2022/04/20 01:10:43;;;;;;;;;;;7.40;60.60;;;;;;5149901;27;19915;-72
2022/04/20 01:13:10;;;;;;;;;;;7.40;60.50;;;;;;5149805;27;19922;-72
2022/04/20 01:15:35;;;;;;;;;;;7.30;60.40;;;;;;5131489;27;19922;-72
2022/04/20 01:18:14;;;;;;;;;;;7.30;60.50;;;;;;5149676;27;19920;-72
2022/04/20 01:20:40;;;;;;;;;;;7.20;60.50;;;;;;5149553;27;19962;-72
2022/04/20 01:23:06;;;;;;;;;;;7.20;60.50;;;;;;5149702;27;19960;-72
2022/04/20 01:25:31;;;;;;;;;;;7.20;60.50;;;;;;5149648;27;19907;-72
2022/04/20 01:27:57;;;;;;;;;;;7.20;60.50;;;;;;5149625;27;19938;-72
2022/04/20 01:30:22;;;;;;;;;;;7.10;60.50;;;;;;5149460;27;19911;-72
2022/04/20 01:32:48;;;;;;;;;;;7.10;60.60;;;;;;5149372;27;19915;-72
2022/04/20 01:35:13;;;;;;;;;;;7.00;60.50;;;;;;5149233;27;19911;-72
2022/04/20 01:37:39;;;;;;;;;;;6.90;61.10;;;;;;5149453;27;20284;-73
2022/04/20 01:40:05;;;;;;;;;;;6.80;60.80;;;;;;5130642;27;19915;-72
2022/04/20 01:42:32;;;;;;;;;;;6.70;60.80;;;;;;5149539;27;20241;-72
2022/04/20 01:44:58;;;;;;;;;;;6.70;60.80;;;;;;5149364;27;19916;-72
2022/04/20 01:47:26;;;;;;;;;;;6.50;60.70;;;;;;5149438;27;19911;-73
2022/04/20 01:49:52;;;;;;;;;;;6.40;61.00;;;;;;5149503;27;20178;-72
2022/04/20 01:52:17;;;;;;;;;;;6.40;61.00;;;;;;5130960;27;20010;-72
2022/04/20 01:54:43;;;;;;;;;;;6.40;61.50;;;;;;5130923;27;19915;-72
2022/04/20 01:57:08;;;;;;;;;;;6.40;61.00;;;;;;5149308;27;19915;-72
2022/04/20 01:59:34;;;;;;;;;;;6.40;61.00;;;;;;5149147;27;20420;-72
2022/04/20 02:04:43;;;;;;;;;;;6.60;60.90;;;;;;5149762;27;19960;-72
2022/04/20 02:07:09;;;;;;;;;;;6.70;60.90;;;;;;5151940;27;19915;-72
2022/04/20 02:09:35;;;;;;;;;;;6.70;60.80;;;;;;5153194;27;19950;-72
2022/04/20 02:12:00;;;;;;;;;;;6.60;60.70;;;;;;5153557;27;19918;-72
2022/04/20 02:14:26;;;;;;;;;;;6.50;60.70;;;;;;5153125;27;19907;-72
2022/04/20 02:16:52;;;;;;;;;;;6.40;60.90;;;;;;5153041;27;19911;-72
2022/04/20 02:19:18;;;;;;;;;;;6.40;61.10;;;;;;5134298;27;19914;-72
2022/04/20 02:21:43;;;;;;;;;;;6.40;61.20;;;;;;5152872;27;19915;-72
2022/04/20 02:24:10;;;;;;;;;;;6.50;61.10;;;;;;5134239;27;19914;-72
2022/04/20 02:26:36;;;;;;;;;;;6.60;61.20;;;;;;5152909;27;19911;-72
2022/04/20 02:29:01;;;;;;;;;;;6.60;61.00;;;;;;5152783;27;19914;-72
2022/04/20 02:31:27;;;;;;;;;;;6.60;61.10;;;;;;5152668;27;19911;-72
2022/04/20 02:33:53;;;;;;;;;;;6.70;61.10;;;;;;5152693;27;20369;-72
2022/04/20 02:36:18;;;;;;;;;;;6.80;61.00;;;;;;5152656;27;19922;-72
2022/04/20 02:38:44;;;;;;;;;;;6.90;61.20;;;;;;5133979;27;19911;-72
2022/04/20 02:41:10;;;;;;;;;;;6.90;60.90;;;;;;5152575;27;19960;-73
2022/04/20 02:43:36;;;;;;;;;;;6.90;60.80;;;;;;5152638;27;19971;-72
2022/04/20 02:46:02;;;;;;;;;;;6.90;60.80;;;;;;5152500;27;20271;-72
2022/04/20 02:48:27;;;;;;;;;;;6.90;60.70;;;;;;5152388;27;19915;-72
2022/04/20 02:50:53;;;;;;;;;;;6.80;60.80;;;;;;5152285;27;20277;-72
2022/04/20 02:53:18;;;;;;;;;;;6.70;60.80;;;;;;5152483;27;19950;-72
2022/04/20 02:55:44;;;;;;;;;;;6.60;60.90;;;;;;5152416;27;19922;-73
2022/04/20 02:58:10;;;;;;;;;;;6.60;61.00;;;;;;5152400;27;20361;-72
2022/04/20 03:00:36;;;;;;;;;;;6.60;61.00;;;;;;5133400;27;19922;-72
2022/04/20 03:03:01;;;;;;;;;;;6.50;61.00;;;;;;5133401;27;19911;-72
2022/04/20 03:05:27;;;;;;;;;;;6.50;60.90;;;;;;5152166;27;19979;-72
2022/04/20 03:07:53;;;;;;;;;;;6.50;60.90;;;;;;5152075;27;19922;-72
2022/04/20 03:10:18;;;;;;;;;;;6.40;61.00;;;;;;5133688;27;19915;-72
2022/04/20 03:12:44;;;;;;;;;;;6.40;61.00;;;;;;5152218;27;19914;-72
2022/04/20 03:15:09;;;;;;;;;;;6.30;61.00;;;;;;5151883;27;19918;-72
2022/04/20 03:17:35;;;;;;;;;;;6.30;61.00;;;;;;5151651;27;19951;-72
2022/04/20 03:20:00;;;;;;;;;;;6.20;60.90;;;;;;5151962;27;19922;-72
2022/04/20 03:22:27;;;;;;;;;;;6.20;60.90;;;;;;5151757;27;19915;-72
2022/04/20 03:24:52;;;;;;;;;;;6.20;61.50;;;;;;5133247;27;20277;-72
2022/04/20 03:27:18;;;;;;;;;;;6.00;61.00;;;;;;5152023;27;19913;-72
2022/04/20 03:29:43;;;;;;;;;;;5.90;61.10;;;;;;5151640;27;19964;-72
2022/04/20 03:32:10;;;;;;;;;;;5.80;61.30;;;;;;5151741;27;19954;-73
2022/04/20 03:34:36;;;;;;;;;;;5.90;61.70;;;;;;5151556;27;19908;-72
2022/04/20 03:37:01;;;;;;;;;;;5.90;61.50;;;;;;5151410;27;20200;-72
2022/04/20 03:39:27;;;;;;;;;;;6.00;61.40;;;;;;5132871;27;19919;-73
2022/04/20 03:41:52;;;;;;;;;;;6.00;61.40;;;;;;5151445;27;19967;-72
2022/04/20 03:44:18;;;;;;;;;;;6.00;61.40;;;;;;5151346;27;20310;-72
2022/04/20 03:46:44;;;;;;;;;;;6.00;61.60;;;;;;5151279;27;19970;-72
2022/04/20 03:49:09;;;;;;;;;;;6.00;61.50;;;;;;5151314;27;19914;-72
2022/04/20 03:51:36;;;;;;;;;;;6.10;61.40;;;;;;5132843;27;19918;-72
2022/04/20 03:54:02;;;;;;;;;;;6.10;61.30;;;;;;5151173;27;19912;-72
2022/04/20 03:57:03;;;;;;;;;;;6.10;61.20;;;;;;5151101;27;19907;-73
2022/04/20 03:59:13;;;;;;;;;;;6.10;61.20;;;;;;5150796;27;19915;-73
2022/04/20 04:01:38;;;;;;;;;;;6.00;61.20;;;;;;5150871;27;20390;-72
2022/04/20 04:04:05;;;;;;;;;;;6.00;61.30;;;;;;5150824;27;20262;-72
2022/04/20 04:06:30;;;;;;;;;;;6.00;61.20;;;;;;5132477;27;19933;-72
2022/04/20 04:08:56;;;;;;;;;;;5.90;61.20;;;;;;5150847;27;19911;-72
2022/04/20 04:11:21;;;;;;;;;;;5.80;61.40;;;;;;5150776;27;19962;-72
2022/04/20 04:13:47;;;;;;;;;;;5.70;61.30;;;;;;5115084;27;19956;-72
2022/04/20 04:16:12;;;;;;;;;;;5.70;61.40;;;;;;5150822;27;20552;-72
2022/04/20 04:18:38;;;;;;;;;;;5.60;61.50;;;;;;5132297;27;19934;-73
2022/04/20 04:21:04;;;;;;;;;;;5.50;61.40;;;;;;5151009;27;20038;-72
2022/04/20 04:23:29;;;;;;;;;;;5.40;61.50;;;;;;5150692;27;20349;-72
2022/04/20 04:25:55;;;;;;;;;;;5.40;61.60;;;;;;5150481;27;19925;-72
2022/04/20 04:28:21;;;;;;;;;;;5.40;61.60;;;;;;5131555;27;19915;-72
2022/04/20 04:30:46;;;;;;;;;;;5.30;61.50;;;;;;5150352;27;20280;-72
2022/04/20 04:33:12;;;;;;;;;;;5.40;61.80;;;;;;5132067;27;19907;-72
2022/04/20 04:35:37;;;;;;;;;;;5.40;61.80;;;;;;5150427;27;20049;-72
2022/04/20 04:38:03;;;;;;;;;;;5.40;61.50;;;;;;5150294;27;19965;-73
2022/04/20 04:40:29;;;;;;;;;;;5.40;61.40;;;;;;5150254;27;19945;-73
2022/04/20 04:42:54;;;;;;;;;;;5.40;61.60;;;;;;5150249;27;19911;-72
2022/04/20 04:50:48;;;;;;;;;;;5.50;61.70;;;;;;5150154;27;20002;-72
2022/04/20 04:53:13;;;;;;;;;;;5.50;61.50;;;;;;5149997;27;19964;-72
2022/04/20 04:55:39;;;;;;;;;;;5.50;61.50;;;;;;5150023;27;19911;-73
2022/04/20 04:58:05;;;;;;;;;;;5.40;61.50;;;;;;5114232;27;19937;-72
2022/04/20 05:00:30;;;;;;;;;;;5.40;61.60;;;;;;5150077;27;19915;-73
2022/04/20 05:02:56;;;;;;;;;;;5.40;61.70;;;;;;5149963;27;19908;-73
2022/04/20 05:05:21;;;;;;;;;;;5.30;61.70;;;;;;5131268;27;20055;-72
2022/04/20 05:07:47;;;;;;;;;;;5.40;61.80;;;;;;5131273;27;19911;-72
2022/04/20 05:10:12;;;;;;;;;;;5.40;61.80;;;;;;5150172;27;19916;-73
2022/04/20 05:12:38;;;;;;;;;;;5.40;61.70;;;;;;5149854;27;19918;-72
2022/04/20 05:15:04;;;;;;;;;;;5.40;61.70;;;;;;5149704;27;19911;-71
2022/04/20 05:17:29;;;;;;;;;;;5.30;61.70;;;;;;5149499;27;20361;-73
2022/04/20 05:19:55;;;;;;;;;;;5.30;61.80;;;;;;5149743;27;19917;-73
2022/04/20 05:22:21;;;;;;;;;;;5.30;61.80;;;;;;5149627;27;19980;-73
2022/04/20 05:24:46;;;;;;;;;;;5.30;61.90;;;;;;5150112;27;19915;-72
2022/04/20 05:27:13;;;;;;;;;;;5.40;61.80;;;;;;5131029;27;19953;-73
2022/04/20 05:29:39;;;;;;;;;;;5.30;61.80;;;;;;5149449;27;19911;-72
2022/04/20 05:32:04;;;;;;;;;;;5.20;61.70;;;;;;5149450;27;19914;-73
2022/04/20 05:34:33;;;;;;;;;;;5.20;61.70;;;;;;5149604;27;19908;-72
2022/04/20 05:42:27;;;;;;;;;;;5.40;61.80;;;;;;5152961;27;19925;-72
2022/04/20 05:44:52;;;;;;;;;;;5.50;62.00;;;;;;5153655;27;20006;-72
2022/04/20 05:47:18;;;;;;;;;;;5.50;62.10;;;;;;5153395;27;19911;-73
2022/04/20 05:49:43;;;;;;;;;;;5.60;62.00;;;;;;5153551;27;19915;-73
2022/04/20 05:52:09;;;;;;;;;;;5.70;62.00;;;;;;5153386;27;20395;-72
2022/04/20 05:54:34;;;;;;;;;;;5.70;61.80;;;;;;5153238;27;20284;-72
2022/04/20 05:57:01;;;;;;;;;;;5.80;61.80;;;;;;5134768;27;19919;-73
2022/04/20 05:59:26;;;;;;;;;;;5.80;61.80;;;;;;5153227;27;19911;-73
2022/04/20 06:01:53;;;;;;;;;;;5.80;61.60;;;;;;5153248;27;19978;-73
2022/04/20 06:04:18;;;;;;;;;;;5.80;61.70;;;;;;5134985;27;20281;-72
2022/04/20 06:06:44;;;;;;;;;;;5.70;61.80;;;;;;5153099;27;19912;-73
2022/04/20 06:09:10;;;;;;;;;;;5.80;61.90;;;;;;5153012;27;20023;-73
2022/04/20 06:11:35;;;;;;;;;;;5.70;61.90;;;;;;5153139;27;19918;-73
2022/04/20 06:14:01;;;;;;;;;;;5.80;62.10;;;;;;5153026;27;19915;-73
2022/04/20 06:16:27;;;;;;;;;;;5.90;62.00;;;;;;5152924;27;19930;-73
2022/04/20 06:18:52;;;;;;;;;;;5.90;62.00;;;;;;5153148;27;19907;-73
2022/04/20 06:21:18;;;;;;;;;;;6.00;62.10;;;;;;5152622;27;19938;-72
2022/04/20 06:23:44;;;;;;;;;;;6.10;62.10;;;;;;5152656;27;19959;-73
2022/04/20 06:26:10;;;;;;;;;;;6.20;62.00;;;;;;5152534;27;20006;-73
2022/04/20 06:28:36;;;;;;;;;;;6.30;62.00;;;;;;5152294;27;19918;-73
2022/04/20 06:31:01;;;;;;;;;;;6.50;62.00;;;;;;5133975;27;20314;-74
2022/04/20 06:33:27;;;;;;;;;;;6.70;62.10;;;;;;5152459;27;20276;-73
2022/04/20 06:35:53;;;;;;;;;;;6.80;62.00;;;;;;5152187;27;19969;-73
2022/04/20 06:38:19;;;;;;;;;;;7.00;61.90;;;;;;5152284;27;20348;-73
2022/04/20 06:40:44;;;;;;;;;;;7.10;61.80;;;;;;5152713;27;19977;-73
2022/04/20 06:43:10;;;;;;;;;;;7.10;61.60;;;;;;5152352;27;20006;-73
2022/04/20 06:45:36;;;;;;;;;;;7.10;61.60;;;;;;5152284;27;19998;-73
2022/04/20 06:48:01;;;;;;;;;;;7.10;61.70;;;;;;5152268;27;19912;-76
2022/04/20 06:50:28;;;;;;;;;;;7.10;61.70;;;;;;5152072;27;19930;-73
2022/04/20 06:58:31;;;;;;;;;;;7.00;62.00;;;;;;5151749;27;19916;-73
2022/04/20 07:00:57;;;;;;;;;;;7.00;62.00;;;;;;5151973;27;19919;-73
2022/04/20 07:03:23;;;;;;;;;;;7.00;62.00;;;;;;5152022;27;19955;-73
2022/04/20 07:05:48;;;;;;;;;;;7.10;62.70;;;;;;5151842;27;19922;-73
2022/04/20 07:08:14;;;;;;;;;;;7.20;62.20;;;;;;5151933;27;19932;-73
2022/04/20 07:10:40;;;;;;;;;;;7.30;62.40;;;;;;5151991;27;19960;-73
2022/04/20 07:13:05;;;;;;;;;;;7.60;62.70;;;;;;5151749;27;19917;-73
2022/04/20 07:15:31;;;;;;;;;;;8.10;63.00;;;;;;5151603;27;20407;-73
2022/04/20 07:17:56;;;;;;;;;;;8.60;62.80;;;;;;5151764;27;19915;-73
2022/04/20 07:20:22;;;;;;;;;;;9.20;62.50;;;;;;5151867;27;19911;-73
2022/04/20 07:22:48;;;;;;;;;;;9.60;62.40;;;;;;5115580;27;19915;-73
2022/04/20 07:25:15;;;;;;;;;;;9.90;62.20;;;;;;5151217;27;19949;-73
2022/04/20 07:27:40;;;;;;;;;;;10.20;62.30;;;;;;5150764;27;19918;-73
2022/04/20 07:30:06;;;;;;;;;;;10.50;62.20;;;;;;5151294;27;19907;-73
2022/04/20 07:32:32;;;;;;;;;;;10.90;62.30;;;;;;5151169;27;19922;-73
2022/04/20 07:34:57;;;;;;;;;;;11.50;62.40;;;;;;5151175;27;19907;-73
2022/04/20 07:37:23;;;;;;;;;;;12.30;62.80;;;;;;5150979;27;20001;-73
2022/04/20 07:39:49;;;;;;;;;;;13.40;62.90;;;;;;5151271;27;19911;-73
2022/04/20 07:42:14;;;;;;;;;;;14.50;62.60;;;;;;5150850;27;19919;-73
2022/04/20 07:44:40;;;;;;;;;;;15.70;62.00;;;;;;5151202;27;20326;-73
2022/04/20 07:47:05;;;;;;;;;;;16.50;61.70;;;;;;5132495;27;19917;-73
2022/04/20 07:52:21;;;;;;;;;;;18.10;62.00;;;;;;5151152;27;19917;-73
2022/04/20 07:54:46;;;;;;;;;;;18.90;61.80;;;;;;5150369;27;19913;-73
2022/04/20 07:57:15;;;;;;;;;;;19.30;62.00;;;;;;5150495;27;20261;-73
2022/04/20 07:59:41;;;;;;;;;;;19.80;62.20;;;;;;5132254;27;19915;-73
2022/04/20 08:02:07;;;;;;;;;;;20.20;62.50;;;;;;5150334;27;19914;-73
2022/04/20 08:04:32;;;;;;;;;;;20.80;62.60;;;;;;5149554;27;20448;-73
2022/04/20 08:06:58;;;;;;;;;;;21.10;62.50;;;;;;5150333;27;19911;-74
2022/04/20 08:09:24;;;;;;;;;;;21.50;62.80;;;;;;5150295;27;20306;-73
2022/04/20 08:11:50;;;;;;;;;;;21.90;62.90;;;;;;5150384;27;19960;-74
2022/04/20 08:14:16;;;;;;;;;;;22.30;62.60;;;;;;5150387;27;19907;-73
2022/04/20 08:16:42;;;;;;;;;;;22.60;62.70;;;;;;5150501;27;19911;-73
2022/04/20 08:19:08;;;;;;;;;;;22.80;63.10;;;;;;5150164;27;19911;-74
2022/04/20 08:21:34;;;;;;;;;;;23.20;63.20;;;;;;5150016;27;19938;-73
2022/04/20 08:23:59;;;;;;;;;;;23.70;63.20;;;;;;5149845;27;19952;-73
2022/04/20 08:26:25;;;;;;;;;;;24.20;62.90;;;;;;5150029;27;19918;-73
2022/04/20 08:28:51;;;;;;;;;;;24.50;62.80;;;;;;5149723;27;19911;-73
2022/04/20 08:31:16;;;;;;;;;;;24.80;62.90;;;;;;5149867;27;20030;-76
2022/04/20 08:33:42;;;;;;;;;;;25.10;62.60;;;;;;5149943;27;20353;-74
2022/04/20 08:36:10;;;;;;;;;;;25.50;62.30;;;;;;5149722;27;19919;-73
2022/04/20 08:38:37;;;;;;;;;;;25.60;62.20;;;;;;5149481;27;19907;-73
2022/04/20 08:41:03;;;;;;;;;;;25.60;62.10;;;;;;5149577;27;19926;-74
2022/04/20 08:43:30;;;;;;;;;;;25.50;62.60;;;;;;5149433;27;19908;-73
2022/04/20 08:45:58;;;;;;;;;;;25.70;63.00;;;;;;5149684;27;19987;-73
2022/04/20 08:48:24;;;;;;;;;;;25.70;62.80;;;;;;5149422;27;19986;-73
2022/04/20 08:50:51;;;;;;;;;;;25.50;63.10;;;;;;5149519;27;20400;-73
2022/04/20 08:53:17;;;;;;;;;;;25.80;63.40;;;;;;5130647;27;20268;-73
2022/04/20 08:55:44;;;;;;;;;;;26.10;62.50;;;;;;5130650;27;20077;-73
2022/04/20 08:58:10;;;;;;;;;;;26.30;61.60;;;;;;5148847;27;19929;-73
2022/04/20 09:00:35;;;;;;;;;;;26.40;61.50;;;;;;5148883;27;20389;-73
2022/04/20 09:03:03;;;;;;;;;;;26.50;60.50;;;;;;5148899;27;20005;-73
2022/04/20 09:05:33;;;;;;;;;;;26.70;60.90;;;;;;5130369;27;19907;-73
2022/04/20 09:08:06;;;;;;;;;;;26.70;60.70;;;;;;5130382;27;20286;-73
2022/04/20 09:10:32;;;;;;;;;;;26.70;59.90;;;;;;5149390;27;20015;-73
2022/04/20 09:13:02;;;;;;;;;;;26.70;60.30;;;;;;5148906;27;19907;-73
2022/04/20 09:15:28;;;;;;;;;;;27.10;60.40;;;;;;5149087;27;19908;-72
2022/04/20 09:17:55;;;;;;;;;;;27.60;60.80;;;;;;5148915;27;20101;-73
2022/04/20 09:20:21;;;;;;;;;;;28.00;60.60;;;;;;5150362;27;20597;-73
2022/04/20 09:23:03;;;;;;;;;;;28.40;60.10;;;;;;5150183;27;19965;-73
2022/04/20 09:25:30;;;;;;;;;;;28.70;59.70;;;;;;5149740;27;19957;-73
2022/04/20 09:27:55;;;;;;;;;;;28.90;59.40;;;;;;5149755;27;20288;-68
2022/04/20 09:30:21;;;;;;;;;;;28.80;59.00;;;;;;5148898;27;19934;-69
2022/04/20 09:32:47;;;;;;;;;;;28.70;59.20;;;;;;5147751;27;19950;-69
2022/04/20 09:35:14;;;;;;;;;;;28.70;59.40;;;;;;5148808;27;19918;-67
2022/04/20 09:37:40;;;;;;;;;;;28.80;59.10;;;;;;5130055;27;19911;-67
2022/04/20 09:40:11;;;;;;;;;;;28.80;59.30;;;;;;5129775;27;19912;-72
2022/04/20 09:42:37;;;;;;;;;;;28.60;59.40;;;;;;5148718;27;19919;-72
2022/04/20 09:45:04;;;;;;;;;;;28.50;59.50;;;;;;5148990;27;19990;-72
2022/04/20 09:50:24;;;;;;;;;;;28.10;59.90;;;;;;5147582;27;20031;-71
2022/04/20 09:52:50;;;;;;;;;;;28.30;60.20;;;;;;5146411;27;20400;-73
2022/04/20 09:55:26;;;;;;;;;;;28.60;60.20;;;;;;5149271;27;19911;-74
2022/04/20 09:57:51;;;;;;;;;;;28.90;58.50;;;;;;5146707;27;20395;-73
2022/04/20 10:00:17;;;;;;;;;;;29.10;58.10;;;;;;5149020;27;19915;-74
2022/04/20 10:02:51;;;;;;;;;;;29.10;57.60;;;;;;5148001;27;19933;-74
2022/04/20 10:05:17;;;;;;;;;;;29.10;58.70;;;;;;5112444;27;19927;-75
2022/04/20 10:07:43;;;;;;;;;;;29.50;58.50;;;;;;5146018;27;19946;-74
2022/04/20 10:10:09;;;;;;;;;;;29.60;58.30;;;;;;5148722;27;20023;-74
2022/04/20 10:12:39;;;;;;;;;;;29.80;57.90;;;;;;5149012;27;19913;-74
2022/04/20 10:17:51;;;;;;;;;;;30.30;56.90;;;;;;5146435;27;19995;-74
2022/04/20 10:20:18;;;;;;;;;;;30.30;57.20;;;;;;5148201;27;19907;-76
2022/04/20 10:22:45;;;;;;;;;;;29.90;57.50;;;;;;5145785;27;20385;-75
2022/04/20 10:25:11;;;;;;;;;;;30.00;57.40;;;;;;5148339;27;19954;-73
2022/04/20 10:27:41;;;;;;;;;;;30.30;57.40;;;;;;5150009;27;19911;-74
2022/04/20 10:30:12;;;;;;;;;;;30.70;56.90;;;;;;5150226;27;19962;-74
2022/04/20 10:32:46;;;;;;;;;;;30.50;57.30;;;;;;5152700;27;19918;-74
2022/04/20 10:35:12;;;;;;;;;;;30.40;58.20;;;;;;5150016;27;19942;-73
2022/04/20 10:37:39;;;;;;;;;;;30.30;57.90;;;;;;5152267;27;19966;-73
2022/04/20 10:40:14;;;;;;;;;;;30.00;57.80;;;;;;5152204;27;19983;-74
2022/04/20 10:42:40;;;;;;;;;;;29.80;57.90;;;;;;5133264;27;20357;-74
2022/04/20 10:45:06;;;;;;;;;;;29.90;57.10;;;;;;5133571;27;19918;-74
2022/04/20 10:47:36;;;;;;;;;;;30.00;56.50;;;;;;5151435;27;19922;-74
2022/04/20 10:50:21;;;;;;;;;;;30.20;56.50;;;;;;5133212;27;19976;-74
2022/04/20 10:53:03;;;;;;;;;;;30.00;56.90;;;;;;5131370;27;19957;-74
2022/04/20 10:55:28;;;;;;;;;;;30.00;57.10;;;;;;5149008;27;19915;-74
2022/04/20 10:57:55;;;;;;;;;;;29.90;57.00;;;;;;5152404;27;19931;-75
2022/04/20 11:00:21;;;;;;;;;;;30.00;56.50;;;;;;5133620;27;20003;-74
2022/04/20 11:02:48;;;;;;;;;;;30.10;56.00;;;;;;5151255;27;19961;-74
2022/04/20 11:05:15;;;;;;;;;;;30.40;54.60;;;;;;5132733;27;20013;-74
2022/04/20 11:07:59;;;;;;;;;;;30.70;55.30;;;;;;5151856;27;19939;-74
2022/04/20 11:10:24;;;;;;;;;;;30.80;55.20;;;;;;5132155;27;20377;-74
2022/04/20 11:21:03;;;;;;;;;;;30.60;54.10;;;;;;5152029;27;19985;-72
2022/04/20 11:23:47;;;;;;;;;;;30.20;54.60;;;;;;5152038;27;20209;-73
2022/04/20 11:26:14;;;;;;;;;;;30.10;55.30;;;;;;5151701;27;19922;-73
2022/04/20 11:28:41;;;;;;;;;;;30.30;55.60;;;;;;5151812;27;19908;-74
2022/04/20 11:31:06;;;;;;;;;;;30.40;55.00;;;;;;5151194;27;19907;-74
2022/04/20 11:33:33;;;;;;;;;;;30.30;55.90;;;;;;5150741;27;19938;-73
2022/04/20 11:35:58;;;;;;;;;;;30.60;55.40;;;;;;5131647;27;19922;-73
2022/04/20 11:38:56;;;;;;;;;;;30.70;55.40;;;;;;5150082;27;20056;-73
2022/04/20 11:41:21;;;;;;;;;;;30.80;55.10;;;;;;5104917;27;19915;-73
2022/04/20 11:43:49;;;;;;;;;;;31.00;54.70;;;;;;5151214;27;20384;-75
2022/04/20 11:46:15;;;;;;;;;;;30.70;54.90;;;;;;5151409;27;20052;-73
2022/04/20 11:48:51;;;;;;;;;;;30.40;55.70;;;;;;5151475;27;20284;-73
2022/04/20 11:51:25;;;;;;;;;;;30.30;55.40;;;;;;5150943;27;19919;-73
2022/04/20 11:53:51;;;;;;;;;;;30.30;54.90;;;;;;5150519;27;19914;-73
2022/04/20 11:56:16;;;;;;;;;;;30.50;54.40;;;;;;5150586;27;19972;-75
2022/04/20 11:58:51;;;;;;;;;;;30.50;54.30;;;;;;5150429;27;19945;-73
2022/04/20 12:01:17;;;;;;;;;;;30.20;53.40;;;;;;5150549;27;19915;-71
2022/04/20 12:03:45;;;;;;;;;;;29.90;54.00;;;;;;5150802;27;19915;-73
2022/04/20 12:06:12;;;;;;;;;;;29.70;53.60;;;;;;5150699;27;19964;-73
2022/04/20 12:08:42;;;;;;;;;;;29.50;53.50;;;;;;5150061;27;19944;-72
2022/04/20 12:11:08;;;;;;;;;;;29.30;53.10;;;;;;5150395;27;19999;-72
2022/04/20 12:13:35;;;;;;;;;;;29.10;52.90;;;;;;5150864;27;19923;-74
2022/04/20 12:16:01;;;;;;;;;;;28.80;53.10;;;;;;5131968;27;20005;-75
2022/04/20 12:18:35;;;;;;;;;;;28.70;53.40;;;;;;5150320;27;19907;-73
2022/04/20 12:21:27;;;;;;;;;;;28.90;53.20;;;;;;5149944;27;19926;-72
2022/04/20 12:23:52;;;;;;;;;;;28.90;53.20;;;;;;5148826;27;19919;-74
2022/04/20 12:26:28;;;;;;;;;;;28.90;52.30;;;;;;5148983;27;19917;-75
2022/04/20 12:29:03;;;;;;;;;;;28.80;51.70;;;;;;5148929;27;19922;-74
2022/04/20 12:31:29;;;;;;;;;;;28.90;51.80;;;;;;5131188;27;19960;-74
2022/04/20 12:33:58;;;;;;;;;;;28.90;52.00;;;;;;5149317;27;20320;-72
2022/04/20 12:36:24;;;;;;;;;;;28.60;51.60;;;;;;5149723;27;19919;-73
2022/04/20 12:38:52;;;;;;;;;;;28.40;51.60;;;;;;5150098;27;20383;-73
2022/04/20 12:41:53;;;;;;;;;;;28.30;51.90;;;;;;5149545;27;19930;-73
2022/04/20 12:44:37;;;;;;;;;;;28.20;51.80;;;;;;5065239;28;19909;-73
2022/04/20 12:47:06;;;;;;;;;;;28.10;51.00;;;;;;5142139;27;19912;-73
2022/04/20 12:49:32;;;;;;;;;;;28.10;50.90;;;;;;5130844;27;19907;-73
2022/04/20 12:52:09;;;;;;;;;;;28.20;51.40;;;;;;5149952;27;19929;-73
2022/04/20 12:54:35;;;;;;;;;;;28.00;50.80;;;;;;5149419;27;20043;-73
2022/04/20 13:02:30;;;;;;;;;;;26.60;51.00;;;;;;5148581;27;20012;-73
2022/04/20 13:04:56;;;;;;;;;;;26.50;51.10;;;;;;5149573;27;19914;-73
2022/04/20 13:07:22;;;;;;;;;;;26.50;50.90;;;;;;5130456;27;20449;-73
2022/04/20 13:09:47;;;;;;;;;;;26.40;51.00;;;;;;5130734;27;19941;-73
2022/04/20 13:12:13;;;;;;;;;;;26.10;50.10;;;;;;5149591;27;20020;-72
2022/04/20 13:14:39;;;;;;;;;;;25.80;50.40;;;;;;5149852;27;19907;-73
2022/04/20 13:17:09;;;;;;;;;;;25.50;50.80;;;;;;5149480;27;20325;-72
2022/04/20 13:19:38;;;;;;;;;;;25.20;50.60;;;;;;5149217;27;20330;-73
2022/04/20 13:22:03;;;;;;;;;;;25.00;51.10;;;;;;5148509;27;20347;-72
2022/04/20 13:29:59;;;;;;;;;;;24.70;50.30;;;;;;5149730;27;19965;-72
2022/04/20 13:32:25;;;;;;;;;;;24.30;50.10;;;;;;5130271;27;19958;-74
2022/04/20 13:34:54;;;;;;;;;;;23.70;50.20;;;;;;5129322;27;20384;-73
2022/04/20 13:37:19;;;;;;;;;;;23.20;50.70;;;;;;5148578;27;19958;-74
2022/04/20 13:39:45;;;;;;;;;;;22.80;50.20;;;;;;5148657;27;19945;-72
2022/04/20 13:42:12;;;;;;;;;;;22.70;50.50;;;;;;5144186;27;19919;-73
2022/04/20 13:44:38;;;;;;;;;;;22.70;50.40;;;;;;5148290;27;20222;-72
2022/04/20 13:47:04;;;;;;;;;;;22.70;49.90;;;;;;5148703;27;19922;-73
2022/04/20 13:49:29;;;;;;;;;;;22.40;49.90;;;;;;5148894;27;20321;-72
2022/04/20 13:51:55;;;;;;;;;;;22.20;49.90;;;;;;5148793;27;19911;-73
2022/04/20 13:54:21;;;;;;;;;;;22.20;50.00;;;;;;5129601;27;19911;-72
2022/04/20 13:56:50;;;;;;;;;;;22.10;49.90;;;;;;5112792;27;19960;-73
2022/04/20 13:59:15;;;;;;;;;;;22.00;49.20;;;;;;5130050;27;19911;-72
2022/04/20 14:01:41;;;;;;;;;;;21.60;49.20;;;;;;5148328;27;19922;-72
2022/04/20 14:04:06;;;;;;;;;;;21.20;49.50;;;;;;5151778;27;19911;-73
2022/04/20 14:06:32;;;;;;;;;;;21.00;49.90;;;;;;5133724;27;19915;-72
2022/04/20 14:08:58;;;;;;;;;;;20.90;50.20;;;;;;5151968;27;20033;-72
2022/04/20 14:11:24;;;;;;;;;;;20.90;50.00;;;;;;5152881;27;19954;-73
2022/04/20 14:13:52;;;;;;;;;;;21.00;49.70;;;;;;5133788;27;19911;-74
2022/04/20 14:16:17;;;;;;;;;;;21.00;49.70;;;;;;5133938;27;19911;-74
2022/04/20 14:18:43;;;;;;;;;;;20.90;49.80;;;;;;5152827;27;19915;-73
2022/04/20 14:21:11;;;;;;;;;;;21.00;49.90;;;;;;5133348;27;19923;-74
2022/04/20 14:23:37;;;;;;;;;;;20.90;49.50;;;;;;5152327;27;20307;-74
2022/04/20 14:34:15;;;;;;;;;;;20.50;50.00;;;;;;5152580;27;19918;-73
2022/04/20 14:36:40;;;;;;;;;;;20.70;50.00;;;;;;5151920;27;20293;-73
2022/04/20 14:39:06;;;;;;;;;;;20.80;50.20;;;;;;5152445;27;20001;-74
2022/04/20 14:41:32;;;;;;;;;;;20.80;50.20;;;;;;5152157;27;19923;-74
2022/04/20 14:43:57;;;;;;;;;;;21.00;50.20;;;;;;5151256;27;19928;-74
2022/04/20 14:46:23;;;;;;;;;;;21.00;49.80;;;;;;5152255;27;19929;-74
2022/04/20 14:48:48;;;;;;;;;;;20.90;49.80;;;;;;5151954;27;19961;-73
2022/04/20 14:51:14;;;;;;;;;;;20.80;50.40;;;;;;5151781;27;19911;-72
2022/04/20 14:53:40;;;;;;;;;;;20.80;50.00;;;;;;5151705;27;20287;-72
2022/04/20 14:56:06;;;;;;;;;;;20.90;50.00;;;;;;5150928;27;19911;-73
2022/04/20 14:58:31;;;;;;;;;;;20.90;49.90;;;;;;5133202;27;19983;-73
2022/04/20 15:00:57;;;;;;;;;;;20.80;50.00;;;;;;5151719;27;19998;-74
2022/04/20 15:03:23;;;;;;;;;;;20.60;50.10;;;;;;5152249;27;19946;-75
2022/04/20 15:05:48;;;;;;;;;;;20.40;50.30;;;;;;5133200;27;19911;-72
2022/04/20 15:08:14;;;;;;;;;;;20.30;50.20;;;;;;5133056;27;19911;-74
2022/04/20 15:10:39;;;;;;;;;;;20.30;50.40;;;;;;5150315;27;19915;-74
2022/04/20 15:13:05;;;;;;;;;;;20.30;50.40;;;;;;5150602;27;20558;-73
2022/04/20 15:15:31;;;;;;;;;;;20.20;50.40;;;;;;5133021;27;20010;-72